sensor_id;sensor_type;location;lat;lon;timestamp;P1;durP1;ratioP1;P2;durP2;ratioP2
50683;SDS011;36654;45.042;38.994;2023-01-30T00:00:14;49.67;;;22.65;;
50683;SDS011;36654;45.042;38.994;2023-01-30T00:02:39;57.83;;;24.95;;
50683;SDS011;36654;45.042;38.994;2023-01-30T00:05:05;50.30;;;22.40;;
50683;SDS011;36654;45.042;38.994;2023-01-30T00:07:31;49.55;;;20.95;;
50683;SDS011;36654;45.042;38.994;2023-01-30T00:09:56;44.35;;;20.02;;
50683;SDS011;36654;45.042;38.994;2023-01-30T00:12:22;41.63;;;19.83;;
50683;SDS011;36654;45.042;38.994;2023-01-30T00:14:48;45.80;;;21.83;;
50683;SDS011;36654;45.042;38.994;2023-01-30T00:17:14;36.63;;;18.38;;
50683;SDS011;36654;45.042;38.994;2023-01-30T00:19:39;38.85;;;17.08;;
50683;SDS011;36654;45.042;38.994;2023-01-30T00:22:05;28.58;;;13.07;;
50683;SDS011;36654;45.042;38.994;2023-01-30T00:24:30;27.23;;;13.75;;
50683;SDS011;36654;45.042;38.994;2023-01-30T00:26:56;26.52;;;13.85;;
50683;SDS011;36654;45.042;38.994;2023-01-30T00:29:21;31.15;;;14.15;;
50683;SDS011;36654;45.042;38.994;2023-01-30T00:31:47;23.48;;;12.73;;
50683;SDS011;36654;45.042;38.994;2023-01-30T00:34:12;21.05;;;10.00;;
50683;SDS011;36654;45.042;38.994;2023-01-30T00:36:38;21.95;;;11.25;;
50683;SDS011;36654;45.042;38.994;2023-01-30T00:39:04;16.20;;;8.25;;
50683;SDS011;36654;45.042;38.994;2023-01-30T00:41:29;17.92;;;8.50;;
50683;SDS011;36654;45.042;38.994;2023-01-30T00:44:15;13.45;;;8.20;;
50683;SDS011;36654;45.042;38.994;2023-01-30T00:46:59;13.45;;;7.38;;
50683;SDS011;36654;45.042;38.994;2023-01-30T00:49:31;10.93;;;6.18;;
50683;SDS011;36654;45.042;38.994;2023-01-30T00:51:57;11.40;;;6.82;;
50683;SDS011;36654;45.042;38.994;2023-01-30T00:54:22;10.32;;;5.75;;
50683;SDS011;36654;45.042;38.994;2023-01-30T00:56:48;12.13;;;6.75;;
50683;SDS011;36654;45.042;38.994;2023-01-30T00:59:14;10.15;;;6.05;;
50683;SDS011;36654;45.042;38.994;2023-01-30T01:01:39;10.20;;;5.68;;
50683;SDS011;36654;45.042;38.994;2023-01-30T01:04:05;9.73;;;5.03;;
50683;SDS011;36654;45.042;38.994;2023-01-30T01:06:33;9.85;;;4.82;;
50683;SDS011;36654;45.042;38.994;2023-01-30T01:08:58;9.93;;;5.28;;
50683;SDS011;36654;45.042;38.994;2023-01-30T01:11:24;9.10;;;4.93;;
50683;SDS011;36654;45.042;38.994;2023-01-30T01:13:50;8.20;;;5.38;;
50683;SDS011;36654;45.042;38.994;2023-01-30T01:16:17;7.05;;;4.93;;
50683;SDS011;36654;45.042;38.994;2023-01-30T01:18:43;8.82;;;4.95;;
50683;SDS011;36654;45.042;38.994;2023-01-30T01:21:08;6.03;;;4.30;;
50683;SDS011;36654;45.042;38.994;2023-01-30T01:23:34;4.88;;;3.65;;
50683;SDS011;36654;45.042;38.994;2023-01-30T01:26:03;4.53;;;3.20;;
50683;SDS011;36654;45.042;38.994;2023-01-30T01:28:29;3.58;;;2.60;;
50683;SDS011;36654;45.042;38.994;2023-01-30T01:30:54;3.60;;;2.60;;
50683;SDS011;36654;45.042;38.994;2023-01-30T01:33:21;3.40;;;1.70;;
50683;SDS011;36654;45.042;38.994;2023-01-30T01:35:53;2.35;;;1.55;;
50683;SDS011;36654;45.042;38.994;2023-01-30T01:38:20;1.83;;;1.65;;
50683;SDS011;36654;45.042;38.994;2023-01-30T01:40:46;1.75;;;1.65;;
50683;SDS011;36654;45.042;38.994;2023-01-30T01:43:27;1.40;;;1.30;;
50683;SDS011;36654;45.042;38.994;2023-01-30T01:46:01;1.38;;;1.27;;
50683;SDS011;36654;45.042;38.994;2023-01-30T01:48:46;1.77;;;1.27;;
50683;SDS011;36654;45.042;38.994;2023-01-30T01:52:02;1.10;;;1.10;;
50683;SDS011;36654;45.042;38.994;2023-01-30T01:54:11;0.70;;;0.70;;
50683;SDS011;36654;45.042;38.994;2023-01-30T01:56:42;1.13;;;1.10;;
50683;SDS011;36654;45.042;38.994;2023-01-30T01:59:13;1.10;;;1.10;;
50683;SDS011;36654;45.042;38.994;2023-01-30T02:01:55;1.40;;;1.30;;
50683;SDS011;36654;45.042;38.994;2023-01-30T02:04:25;1.33;;;1.23;;
50683;SDS011;36654;45.042;38.994;2023-01-30T02:07:11;1.48;;;1.40;;
50683;SDS011;36654;45.042;38.994;2023-01-30T02:09:36;0.98;;;0.98;;
50683;SDS011;36654;45.042;38.994;2023-01-30T02:12:02;1.10;;;1.10;;
50683;SDS011;36654;45.042;38.994;2023-01-30T02:14:30;0.90;;;0.90;;
50683;SDS011;36654;45.042;38.994;2023-01-30T02:16:57;1.38;;;1.27;;
50683;SDS011;36654;45.042;38.994;2023-01-30T02:19:25;1.30;;;1.20;;
50683;SDS011;36654;45.042;38.994;2023-01-30T02:25:18;2.22;;;1.33;;
50683;SDS011;36654;45.042;38.994;2023-01-30T02:27:55;1.17;;;1.13;;
50683;SDS011;36654;45.042;38.994;2023-01-30T02:33:32;1.33;;;0.98;;
50683;SDS011;36654;45.042;38.994;2023-01-30T02:39:01;0.73;;;0.73;;
50683;SDS011;36654;45.042;38.994;2023-01-30T02:42:13;0.80;;;0.80;;
50683;SDS011;36654;45.042;38.994;2023-01-30T02:47:35;1.25;;;1.23;;
50683;SDS011;36654;45.042;38.994;2023-01-30T02:52:37;1.48;;;1.27;;
50683;SDS011;36654;45.042;38.994;2023-01-30T02:55:08;2.90;;;1.25;;
50683;SDS011;36654;45.042;38.994;2023-01-30T02:57:41;2.05;;;1.48;;
50683;SDS011;36654;45.042;38.994;2023-01-30T03:00:07;3.60;;;1.65;;
50683;SDS011;36654;45.042;38.994;2023-01-30T03:02:55;3.55;;;1.98;;
50683;SDS011;36654;45.042;38.994;2023-01-30T03:10:57;1.80;;;1.70;;
50683;SDS011;36654;45.042;38.994;2023-01-30T03:16:35;1.38;;;1.20;;
50683;SDS011;36654;45.042;38.994;2023-01-30T03:19:03;1.40;;;1.30;;
50683;SDS011;36654;45.042;38.994;2023-01-30T03:21:32;1.60;;;1.50;;
50683;SDS011;36654;45.042;38.994;2023-01-30T03:23:58;3.10;;;2.00;;
50683;SDS011;36654;45.042;38.994;2023-01-30T03:26:25;1.67;;;1.58;;
50683;SDS011;36654;45.042;38.994;2023-01-30T03:28:57;1.80;;;1.70;;
50683;SDS011;36654;45.042;38.994;2023-01-30T03:31:23;1.77;;;1.60;;
50683;SDS011;36654;45.042;38.994;2023-01-30T03:33:49;1.70;;;1.45;;
50683;SDS011;36654;45.042;38.994;2023-01-30T03:36:14;1.38;;;1.30;;
50683;SDS011;36654;45.042;38.994;2023-01-30T03:38:40;1.73;;;1.42;;
50683;SDS011;36654;45.042;38.994;2023-01-30T03:41:06;1.58;;;1.48;;
50683;SDS011;36654;45.042;38.994;2023-01-30T03:43:31;2.35;;;1.70;;
50683;SDS011;36654;45.042;38.994;2023-01-30T03:45:57;1.52;;;1.42;;
50683;SDS011;36654;45.042;38.994;2023-01-30T03:48:23;1.50;;;1.40;;
50683;SDS011;36654;45.042;38.994;2023-01-30T03:50:48;1.90;;;1.80;;
50683;SDS011;36654;45.042;38.994;2023-01-30T03:53:14;1.73;;;1.63;;
50683;SDS011;36654;45.042;38.994;2023-01-30T03:55:39;5.22;;;1.90;;
50683;SDS011;36654;45.042;38.994;2023-01-30T03:58:05;2.92;;;1.63;;
50683;SDS011;36654;45.042;38.994;2023-01-30T04:00:31;2.42;;;1.63;;
50683;SDS011;36654;45.042;38.994;2023-01-30T04:02:56;16.10;;;2.35;;
50683;SDS011;36654;45.042;38.994;2023-01-30T04:05:23;3.25;;;2.00;;
50683;SDS011;36654;45.042;38.994;2023-01-30T04:07:49;2.28;;;1.83;;
50683;SDS011;36654;45.042;38.994;2023-01-30T04:10:15;2.95;;;2.10;;
50683;SDS011;36654;45.042;38.994;2023-01-30T04:12:44;5.90;;;2.72;;
50683;SDS011;36654;45.042;38.994;2023-01-30T04:15:10;6.95;;;2.80;;
50683;SDS011;36654;45.042;38.994;2023-01-30T04:17:36;6.93;;;2.80;;
50683;SDS011;36654;45.042;38.994;2023-01-30T04:20:02;7.32;;;2.80;;
50683;SDS011;36654;45.042;38.994;2023-01-30T04:22:28;11.60;;;2.95;;
50683;SDS011;36654;45.042;38.994;2023-01-30T04:24:53;5.53;;;2.30;;
50683;SDS011;36654;45.042;38.994;2023-01-30T04:27:19;3.65;;;2.20;;
50683;SDS011;36654;45.042;38.994;2023-01-30T04:29:44;2.55;;;2.35;;
50683;SDS011;36654;45.042;38.994;2023-01-30T04:32:10;2.90;;;1.90;;
50683;SDS011;36654;45.042;38.994;2023-01-30T04:34:35;2.58;;;2.22;;
50683;SDS011;36654;45.042;38.994;2023-01-30T04:37:01;4.38;;;2.10;;
50683;SDS011;36654;45.042;38.994;2023-01-30T04:39:27;4.63;;;2.60;;
50683;SDS011;36654;45.042;38.994;2023-01-30T04:41:52;2.42;;;2.20;;
50683;SDS011;36654;45.042;38.994;2023-01-30T04:44:18;2.00;;;1.73;;
50683;SDS011;36654;45.042;38.994;2023-01-30T04:46:43;2.55;;;2.05;;
50683;SDS011;36654;45.042;38.994;2023-01-30T04:49:09;3.00;;;2.10;;
50683;SDS011;36654;45.042;38.994;2023-01-30T04:51:35;3.72;;;2.45;;
50683;SDS011;36654;45.042;38.994;2023-01-30T04:54:01;3.20;;;2.30;;
50683;SDS011;36654;45.042;38.994;2023-01-30T04:56:27;3.17;;;2.72;;
50683;SDS011;36654;45.042;38.994;2023-01-30T04:58:52;2.65;;;2.45;;
50683;SDS011;36654;45.042;38.994;2023-01-30T05:01:22;3.95;;;2.80;;
50683;SDS011;36654;45.042;38.994;2023-01-30T05:03:55;3.42;;;2.70;;
50683;SDS011;36654;45.042;38.994;2023-01-30T05:06:21;7.38;;;3.67;;
50683;SDS011;36654;45.042;38.994;2023-01-30T05:08:50;5.03;;;3.83;;
50683;SDS011;36654;45.042;38.994;2023-01-30T05:11:18;5.22;;;3.72;;
50683;SDS011;36654;45.042;38.994;2023-01-30T05:13:45;6.32;;;4.18;;
50683;SDS011;36654;45.042;38.994;2023-01-30T05:16:11;5.20;;;3.80;;
50683;SDS011;36654;45.042;38.994;2023-01-30T05:18:37;15.00;;;6.22;;
50683;SDS011;36654;45.042;38.994;2023-01-30T05:21:08;4.20;;;3.80;;
50683;SDS011;36654;45.042;38.994;2023-01-30T05:23:36;6.65;;;4.80;;
50683;SDS011;36654;45.042;38.994;2023-01-30T05:26:02;8.73;;;4.88;;
50683;SDS011;36654;45.042;38.994;2023-01-30T05:28:28;6.80;;;4.97;;
50683;SDS011;36654;45.042;38.994;2023-01-30T05:30:59;6.53;;;4.47;;
50683;SDS011;36654;45.042;38.994;2023-01-30T05:33:25;7.07;;;4.90;;
50683;SDS011;36654;45.042;38.994;2023-01-30T05:35:51;6.18;;;4.85;;
50683;SDS011;36654;45.042;38.994;2023-01-30T05:38:16;6.22;;;4.18;;
50683;SDS011;36654;45.042;38.994;2023-01-30T05:40:42;10.32;;;5.32;;
50683;SDS011;36654;45.042;38.994;2023-01-30T05:43:08;7.45;;;5.00;;
50683;SDS011;36654;45.042;38.994;2023-01-30T05:45:34;9.15;;;6.32;;
50683;SDS011;36654;45.042;38.994;2023-01-30T05:48:01;7.45;;;5.97;;
50683;SDS011;36654;45.042;38.994;2023-01-30T05:50:27;8.02;;;5.93;;
50683;SDS011;36654;45.042;38.994;2023-01-30T05:52:52;8.93;;;6.32;;
50683;SDS011;36654;45.042;38.994;2023-01-30T05:55:18;9.95;;;5.53;;
50683;SDS011;36654;45.042;38.994;2023-01-30T05:57:44;10.88;;;5.93;;
50683;SDS011;36654;45.042;38.994;2023-01-30T06:00:09;7.82;;;6.10;;
50683;SDS011;36654;45.042;38.994;2023-01-30T06:02:35;12.32;;;6.82;;
50683;SDS011;36654;45.042;38.994;2023-01-30T06:05:02;9.48;;;6.55;;
50683;SDS011;36654;45.042;38.994;2023-01-30T06:07:27;12.30;;;7.88;;
50683;SDS011;36654;45.042;38.994;2023-01-30T06:09:53;10.27;;;6.53;;
50683;SDS011;36654;45.042;38.994;2023-01-30T06:12:19;11.52;;;6.00;;
50683;SDS011;36654;45.042;38.994;2023-01-30T06:14:44;9.25;;;6.40;;
50683;SDS011;36654;45.042;38.994;2023-01-30T06:17:10;10.85;;;6.57;;
50683;SDS011;36654;45.042;38.994;2023-01-30T06:19:35;9.23;;;6.30;;
50683;SDS011;36654;45.042;38.994;2023-01-30T06:22:01;10.27;;;5.20;;
50683;SDS011;36654;45.042;38.994;2023-01-30T06:24:27;6.85;;;4.32;;
50683;SDS011;36654;45.042;38.994;2023-01-30T06:26:53;6.55;;;4.55;;
50683;SDS011;36654;45.042;38.994;2023-01-30T06:29:18;8.27;;;4.35;;
50683;SDS011;36654;45.042;38.994;2023-01-30T06:31:44;7.32;;;4.72;;
50683;SDS011;36654;45.042;38.994;2023-01-30T06:34:09;8.77;;;4.90;;
50683;SDS011;36654;45.042;38.994;2023-01-30T06:36:36;5.35;;;4.53;;
50683;SDS011;36654;45.042;38.994;2023-01-30T06:39:02;8.30;;;4.32;;
50683;SDS011;36654;45.042;38.994;2023-01-30T06:41:30;5.40;;;4.03;;
50683;SDS011;36654;45.042;38.994;2023-01-30T06:43:55;6.47;;;4.70;;
50683;SDS011;36654;45.042;38.994;2023-01-30T06:46:21;6.43;;;3.80;;
50683;SDS011;36654;45.042;38.994;2023-01-30T06:48:47;6.70;;;4.18;;
50683;SDS011;36654;45.042;38.994;2023-01-30T06:51:12;6.22;;;4.30;;
50683;SDS011;36654;45.042;38.994;2023-01-30T06:53:38;7.03;;;3.83;;
50683;SDS011;36654;45.042;38.994;2023-01-30T06:56:04;5.70;;;3.63;;
50683;SDS011;36654;45.042;38.994;2023-01-30T06:58:29;8.57;;;4.25;;
50683;SDS011;36654;45.042;38.994;2023-01-30T07:00:55;6.07;;;4.18;;
50683;SDS011;36654;45.042;38.994;2023-01-30T07:03:21;4.68;;;3.53;;
50683;SDS011;36654;45.042;38.994;2023-01-30T07:05:47;7.13;;;3.72;;
50683;SDS011;36654;45.042;38.994;2023-01-30T07:08:13;5.30;;;3.67;;
50683;SDS011;36654;45.042;38.994;2023-01-30T07:10:39;7.85;;;4.05;;
50683;SDS011;36654;45.042;38.994;2023-01-30T07:13:06;6.07;;;3.90;;
50683;SDS011;36654;45.042;38.994;2023-01-30T07:15:32;4.53;;;3.47;;
50683;SDS011;36654;45.042;38.994;2023-01-30T07:17:58;6.68;;;4.22;;
50683;SDS011;36654;45.042;38.994;2023-01-30T07:20:24;6.03;;;3.83;;
50683;SDS011;36654;45.042;38.994;2023-01-30T07:22:53;5.57;;;4.00;;
50683;SDS011;36654;45.042;38.994;2023-01-30T07:25:20;6.78;;;3.40;;
50683;SDS011;36654;45.042;38.994;2023-01-30T07:27:51;5.13;;;3.90;;
50683;SDS011;36654;45.042;38.994;2023-01-30T07:30:18;19.90;;;10.07;;
50683;SDS011;36654;45.042;38.994;2023-01-30T07:32:44;6.43;;;3.80;;
50683;SDS011;36654;45.042;38.994;2023-01-30T07:35:14;7.20;;;3.45;;
50683;SDS011;36654;45.042;38.994;2023-01-30T07:37:39;5.07;;;3.90;;
50683;SDS011;36654;45.042;38.994;2023-01-30T07:40:05;5.93;;;3.88;;
50683;SDS011;36654;45.042;38.994;2023-01-30T07:42:31;7.15;;;3.58;;
50683;SDS011;36654;45.042;38.994;2023-01-30T07:44:57;6.57;;;3.72;;
50683;SDS011;36654;45.042;38.994;2023-01-30T07:47:22;6.70;;;3.65;;
50683;SDS011;36654;45.042;38.994;2023-01-30T07:49:48;5.70;;;3.50;;
50683;SDS011;36654;45.042;38.994;2023-01-30T07:52:13;4.78;;;3.40;;
50683;SDS011;36654;45.042;38.994;2023-01-30T07:54:39;6.18;;;4.03;;
50683;SDS011;36654;45.042;38.994;2023-01-30T07:57:04;4.55;;;3.85;;
50683;SDS011;36654;45.042;38.994;2023-01-30T07:59:30;12.10;;;4.22;;
50683;SDS011;36654;45.042;38.994;2023-01-30T08:01:55;6.57;;;3.45;;
50683;SDS011;36654;45.042;38.994;2023-01-30T08:04:22;4.70;;;3.38;;
50683;SDS011;36654;45.042;38.994;2023-01-30T08:06:48;4.15;;;3.17;;
50683;SDS011;36654;45.042;38.994;2023-01-30T08:09:14;4.90;;;3.33;;
50683;SDS011;36654;45.042;38.994;2023-01-30T08:11:39;7.05;;;3.30;;
50683;SDS011;36654;45.042;38.994;2023-01-30T08:14:05;6.53;;;3.83;;
50683;SDS011;36654;45.042;38.994;2023-01-30T08:16:30;9.13;;;4.63;;
50683;SDS011;36654;45.042;38.994;2023-01-30T08:18:58;5.93;;;3.60;;
50683;SDS011;36654;45.042;38.994;2023-01-30T08:21:23;7.68;;;3.47;;
50683;SDS011;36654;45.042;38.994;2023-01-30T08:23:49;4.68;;;3.38;;
50683;SDS011;36654;45.042;38.994;2023-01-30T08:26:15;8.93;;;3.58;;
50683;SDS011;36654;45.042;38.994;2023-01-30T08:28:40;5.38;;;2.92;;
50683;SDS011;36654;45.042;38.994;2023-01-30T08:31:10;4.32;;;3.03;;
50683;SDS011;36654;45.042;38.994;2023-01-30T08:33:36;7.47;;;4.25;;
50683;SDS011;36654;45.042;38.994;2023-01-30T08:36:02;7.70;;;3.20;;
50683;SDS011;36654;45.042;38.994;2023-01-30T08:38:28;4.32;;;2.55;;
50683;SDS011;36654;45.042;38.994;2023-01-30T08:40:54;3.67;;;2.50;;
50683;SDS011;36654;45.042;38.994;2023-01-30T08:43:22;5.68;;;2.65;;
50683;SDS011;36654;45.042;38.994;2023-01-30T08:45:48;6.75;;;3.05;;
50683;SDS011;36654;45.042;38.994;2023-01-30T08:48:13;5.43;;;3.72;;
50683;SDS011;36654;45.042;38.994;2023-01-30T08:50:39;4.10;;;2.83;;
50683;SDS011;36654;45.042;38.994;2023-01-30T08:53:05;5.68;;;3.22;;
50683;SDS011;36654;45.042;38.994;2023-01-30T08:55:33;5.18;;;2.90;;
50683;SDS011;36654;45.042;38.994;2023-01-30T08:57:59;7.93;;;3.10;;
50683;SDS011;36654;45.042;38.994;2023-01-30T09:00:25;13.27;;;3.85;;
50683;SDS011;36654;45.042;38.994;2023-01-30T09:02:52;6.72;;;3.10;;
50683;SDS011;36654;45.042;38.994;2023-01-30T09:05:18;7.05;;;3.20;;
50683;SDS011;36654;45.042;38.994;2023-01-30T09:07:44;4.50;;;2.45;;
50683;SDS011;36654;45.042;38.994;2023-01-30T09:10:09;6.93;;;2.45;;
50683;SDS011;36654;45.042;38.994;2023-01-30T09:12:35;4.55;;;3.28;;
50683;SDS011;36654;45.042;38.994;2023-01-30T09:15:01;3.63;;;2.13;;
50683;SDS011;36654;45.042;38.994;2023-01-30T09:17:26;5.80;;;2.15;;
50683;SDS011;36654;45.042;38.994;2023-01-30T09:19:52;2.47;;;2.22;;
50683;SDS011;36654;45.042;38.994;2023-01-30T09:22:18;6.25;;;2.80;;
50683;SDS011;36654;45.042;38.994;2023-01-30T09:24:43;4.35;;;2.42;;
50683;SDS011;36654;45.042;38.994;2023-01-30T09:27:09;4.63;;;2.03;;
50683;SDS011;36654;45.042;38.994;2023-01-30T09:29:34;5.57;;;2.55;;
50683;SDS011;36654;45.042;38.994;2023-01-30T09:32:00;4.32;;;2.20;;
50683;SDS011;36654;45.042;38.994;2023-01-30T09:34:26;4.07;;;2.58;;
50683;SDS011;36654;45.042;38.994;2023-01-30T09:36:55;5.72;;;2.20;;
50683;SDS011;36654;45.042;38.994;2023-01-30T09:39:24;5.72;;;2.08;;
50683;SDS011;36654;45.042;38.994;2023-01-30T09:44:50;5.32;;;2.53;;
50683;SDS011;36654;45.042;38.994;2023-01-30T09:47:27;2.92;;;2.03;;
50683;SDS011;36654;45.042;38.994;2023-01-30T09:55:21;5.05;;;1.95;;
50683;SDS011;36654;45.042;38.994;2023-01-30T09:57:49;10.52;;;2.17;;
50683;SDS011;36654;45.042;38.994;2023-01-30T10:05:41;1.88;;;1.70;;
50683;SDS011;36654;45.042;38.994;2023-01-30T10:08:20;1.92;;;1.70;;
50683;SDS011;36654;45.042;38.994;2023-01-30T10:10:49;3.83;;;1.83;;
50683;SDS011;36654;45.042;38.994;2023-01-30T10:23:28;5.20;;;2.03;;
50683;SDS011;36654;45.042;38.994;2023-01-30T10:26:07;2.85;;;2.10;;
50683;SDS011;36654;45.042;38.994;2023-01-30T10:31:42;2.22;;;2.00;;
50683;SDS011;36654;45.042;38.994;2023-01-30T10:34:17;3.03;;;1.80;;
50683;SDS011;36654;45.042;38.994;2023-01-30T10:42:19;2.85;;;1.60;;
50683;SDS011;36654;45.042;38.994;2023-01-30T10:44:49;5.10;;;2.38;;
50683;SDS011;36654;45.042;38.994;2023-01-30T10:49:53;3.88;;;1.88;;
50683;SDS011;36654;45.042;38.994;2023-01-30T10:52:43;7.00;;;1.50;;
50683;SDS011;36654;45.042;38.994;2023-01-30T11:01:03;3.03;;;1.85;;
50683;SDS011;36654;45.042;38.994;2023-01-30T11:03:39;3.90;;;1.50;;
50683;SDS011;36654;45.042;38.994;2023-01-30T11:06:11;5.25;;;2.03;;
50683;SDS011;36654;45.042;38.994;2023-01-30T11:08:42;2.67;;;1.92;;
50683;SDS011;36654;45.042;38.994;2023-01-30T11:11:28;5.25;;;1.80;;
50683;SDS011;36654;45.042;38.994;2023-01-30T11:14:01;2.40;;;2.20;;
50683;SDS011;36654;45.042;38.994;2023-01-30T11:16:28;2.70;;;1.90;;
50683;SDS011;36654;45.042;38.994;2023-01-30T11:18:55;3.72;;;1.95;;
50683;SDS011;36654;45.042;38.994;2023-01-30T11:21:24;3.03;;;1.85;;
50683;SDS011;36654;45.042;38.994;2023-01-30T11:23:52;1.95;;;1.83;;
50683;SDS011;36654;45.042;38.994;2023-01-30T11:26:20;2.03;;;1.75;;
50683;SDS011;36654;45.042;38.994;2023-01-30T11:28:48;2.90;;;1.88;;
50683;SDS011;36654;45.042;38.994;2023-01-30T11:31:16;3.95;;;1.85;;
50683;SDS011;36654;45.042;38.994;2023-01-30T11:34:02;2.85;;;1.60;;
50683;SDS011;36654;45.042;38.994;2023-01-30T11:36:31;2.70;;;2.00;;
50683;SDS011;36654;45.042;38.994;2023-01-30T11:41:26;4.18;;;2.15;;
50683;SDS011;36654;45.042;38.994;2023-01-30T11:44:02;2.25;;;1.85;;
50683;SDS011;36654;45.042;38.994;2023-01-30T11:46:30;3.03;;;1.80;;
50683;SDS011;36654;45.042;38.994;2023-01-30T11:49:00;1.92;;;1.58;;
50683;SDS011;36654;45.042;38.994;2023-01-30T11:51:37;1.60;;;1.50;;
50683;SDS011;36654;45.042;38.994;2023-01-30T11:54:04;1.92;;;1.77;;
50683;SDS011;36654;45.042;38.994;2023-01-30T11:56:39;2.70;;;1.95;;
50683;SDS011;36654;45.042;38.994;2023-01-30T11:59:30;3.67;;;1.90;;
50683;SDS011;36654;45.042;38.994;2023-01-30T12:02:15;2.17;;;1.88;;
50683;SDS011;36654;45.042;38.994;2023-01-30T12:04:45;3.60;;;1.73;;
50683;SDS011;36654;45.042;38.994;2023-01-30T12:09:50;3.83;;;2.00;;
50683;SDS011;36654;45.042;38.994;2023-01-30T12:15:23;3.97;;;1.90;;
50683;SDS011;36654;45.042;38.994;2023-01-30T12:23:39;4.53;;;1.73;;
50683;SDS011;36654;45.042;38.994;2023-01-30T12:31:12;3.10;;;1.73;;
50683;SDS011;36654;45.042;38.994;2023-01-30T12:34:00;2.42;;;1.98;;
50683;SDS011;36654;45.042;38.994;2023-01-30T12:45:09;3.05;;;2.03;;
50683;SDS011;36654;45.042;38.994;2023-01-30T12:50:53;3.88;;;1.67;;
50683;SDS011;36654;45.042;38.994;2023-01-30T12:56:48;4.22;;;2.05;;
50683;SDS011;36654;45.042;38.994;2023-01-30T12:59:35;9.48;;;2.30;;
50683;SDS011;36654;45.042;38.994;2023-01-30T13:07:45;2.38;;;1.48;;
50683;SDS011;36654;45.042;38.994;2023-01-30T13:18:24;5.20;;;1.23;;
50683;SDS011;36654;45.042;38.994;2023-01-30T13:26:31;2.13;;;1.65;;
50683;SDS011;36654;45.042;38.994;2023-01-30T13:29:13;2.30;;;1.65;;
50683;SDS011;36654;45.042;38.994;2023-01-30T13:31:57;3.38;;;1.92;;
50683;SDS011;36654;45.042;38.994;2023-01-30T13:34:33;4.13;;;2.10;;
50683;SDS011;36654;45.042;38.994;2023-01-30T13:39:54;4.10;;;1.85;;
50683;SDS011;36654;45.042;38.994;2023-01-30T13:42:29;3.28;;;1.70;;
50683;SDS011;36654;45.042;38.994;2023-01-30T13:45:01;2.45;;;1.75;;
50683;SDS011;36654;45.042;38.994;2023-01-30T13:50:22;3.50;;;1.98;;
50683;SDS011;36654;45.042;38.994;2023-01-30T13:55:46;2.67;;;1.75;;
50683;SDS011;36654;45.042;38.994;2023-01-30T14:01:08;2.28;;;1.67;;
50683;SDS011;36654;45.042;38.994;2023-01-30T14:03:36;5.82;;;2.58;;
50683;SDS011;36654;45.042;38.994;2023-01-30T14:08:51;3.67;;;1.63;;
50683;SDS011;36654;45.042;38.994;2023-01-30T14:11:38;1.77;;;1.67;;
50683;SDS011;36654;45.042;38.994;2023-01-30T14:14:33;2.30;;;1.73;;
50683;SDS011;36654;45.042;38.994;2023-01-30T14:19:38;1.65;;;1.55;;
50683;SDS011;36654;45.042;38.994;2023-01-30T14:22:23;1.60;;;1.50;;
50683;SDS011;36654;45.042;38.994;2023-01-30T14:27:53;2.13;;;2.03;;
50683;SDS011;36654;45.042;38.994;2023-01-30T14:35:48;2.60;;;1.60;;
50683;SDS011;36654;45.042;38.994;2023-01-30T14:38:38;4.00;;;1.75;;
50683;SDS011;36654;45.042;38.994;2023-01-30T14:54:01;3.28;;;2.55;;
50683;SDS011;36654;45.042;38.994;2023-01-30T14:56:36;4.18;;;2.75;;
50683;SDS011;36654;45.042;38.994;2023-01-30T15:10:18;4.15;;;2.42;;
50683;SDS011;36654;45.042;38.994;2023-01-30T15:27:12;2.22;;;1.50;;
50683;SDS011;36654;45.042;38.994;2023-01-30T15:32:15;3.15;;;2.08;;
50683;SDS011;36654;45.042;38.994;2023-01-30T15:37:34;5.30;;;2.00;;
50683;SDS011;36654;45.042;38.994;2023-01-30T15:42:50;3.05;;;1.65;;
50683;SDS011;36654;45.042;38.994;2023-01-30T15:51:25;6.28;;;2.10;;
50683;SDS011;36654;45.042;38.994;2023-01-30T15:53:54;3.70;;;2.00;;
50683;SDS011;36654;45.042;38.994;2023-01-30T15:56:23;3.35;;;1.80;;
50683;SDS011;36654;45.042;38.994;2023-01-30T15:58:51;7.68;;;2.20;;
50683;SDS011;36654;45.042;38.994;2023-01-30T16:01:21;3.45;;;2.15;;
50683;SDS011;36654;45.042;38.994;2023-01-30T16:03:47;3.00;;;1.65;;
50683;SDS011;36654;45.042;38.994;2023-01-30T16:09:01;3.47;;;1.92;;
50683;SDS011;36654;45.042;38.994;2023-01-30T16:11:39;4.68;;;1.92;;
50683;SDS011;36654;45.042;38.994;2023-01-30T16:14:13;3.63;;;2.17;;
50683;SDS011;36654;45.042;38.994;2023-01-30T16:16:42;2.28;;;1.50;;
50683;SDS011;36654;45.042;38.994;2023-01-30T16:19:17;3.95;;;1.48;;
50683;SDS011;36654;45.042;38.994;2023-01-30T16:21:46;1.95;;;1.67;;
50683;SDS011;36654;45.042;38.994;2023-01-30T16:24:22;1.98;;;1.80;;
50683;SDS011;36654;45.042;38.994;2023-01-30T16:26:53;2.47;;;2.10;;
50683;SDS011;36654;45.042;38.994;2023-01-30T16:29:22;4.28;;;2.28;;
50683;SDS011;36654;45.042;38.994;2023-01-30T16:31:50;2.40;;;1.70;;
50683;SDS011;36654;45.042;38.994;2023-01-30T16:37:18;2.55;;;1.88;;
50683;SDS011;36654;45.042;38.994;2023-01-30T16:42:34;6.35;;;2.22;;
50683;SDS011;36654;45.042;38.994;2023-01-30T16:47:45;3.53;;;2.33;;
50683;SDS011;36654;45.042;38.994;2023-01-30T16:50:21;3.10;;;2.22;;
50683;SDS011;36654;45.042;38.994;2023-01-30T16:52:50;3.63;;;2.38;;
50683;SDS011;36654;45.042;38.994;2023-01-30T16:55:20;3.95;;;2.20;;
50683;SDS011;36654;45.042;38.994;2023-01-30T16:57:52;4.25;;;2.05;;
50683;SDS011;36654;45.042;38.994;2023-01-30T17:03:00;4.25;;;2.28;;
50683;SDS011;36654;45.042;38.994;2023-01-30T17:05:29;3.33;;;1.90;;
50683;SDS011;36654;45.042;38.994;2023-01-30T17:08:01;2.85;;;1.75;;
50683;SDS011;36654;45.042;38.994;2023-01-30T17:12:56;5.05;;;2.30;;
50683;SDS011;36654;45.042;38.994;2023-01-30T17:15:33;3.05;;;2.20;;
50683;SDS011;36654;45.042;38.994;2023-01-30T17:17:59;5.90;;;1.92;;
50683;SDS011;36654;45.042;38.994;2023-01-30T17:20:34;4.43;;;2.13;;
50683;SDS011;36654;45.042;38.994;2023-01-30T17:23:03;3.65;;;2.00;;
50683;SDS011;36654;45.042;38.994;2023-01-30T17:25:37;4.28;;;2.33;;
50683;SDS011;36654;45.042;38.994;2023-01-30T17:28:06;6.50;;;2.22;;
50683;SDS011;36654;45.042;38.994;2023-01-30T17:30:32;3.95;;;1.85;;
50683;SDS011;36654;45.042;38.994;2023-01-30T17:32:58;3.50;;;2.10;;
50683;SDS011;36654;45.042;38.994;2023-01-30T17:35:23;4.30;;;2.25;;
50683;SDS011;36654;45.042;38.994;2023-01-30T17:37:49;5.45;;;2.20;;
50683;SDS011;36654;45.042;38.994;2023-01-30T17:42:42;5.18;;;2.33;;
50683;SDS011;36654;45.042;38.994;2023-01-30T17:45:08;4.80;;;2.40;;
50683;SDS011;36654;45.042;38.994;2023-01-30T17:47:34;4.63;;;2.55;;
50683;SDS011;36654;45.042;38.994;2023-01-30T17:50:00;4.95;;;2.65;;
50683;SDS011;36654;45.042;38.994;2023-01-30T17:52:26;2.92;;;2.20;;
50683;SDS011;36654;45.042;38.994;2023-01-30T17:54:52;2.60;;;2.05;;
50683;SDS011;36654;45.042;38.994;2023-01-30T17:57:17;2.72;;;1.90;;
50683;SDS011;36654;45.042;38.994;2023-01-30T17:59:44;2.40;;;2.20;;
50683;SDS011;36654;45.042;38.994;2023-01-30T18:02:11;6.03;;;2.40;;
50683;SDS011;36654;45.042;38.994;2023-01-30T18:04:36;2.08;;;1.98;;
50683;SDS011;36654;45.042;38.994;2023-01-30T18:07:04;2.38;;;2.20;;
50683;SDS011;36654;45.042;38.994;2023-01-30T18:09:33;4.40;;;2.65;;
50683;SDS011;36654;45.042;38.994;2023-01-30T18:11:59;2.45;;;2.25;;
50683;SDS011;36654;45.042;38.994;2023-01-30T18:14:25;2.88;;;2.45;;
50683;SDS011;36654;45.042;38.994;2023-01-30T18:16:51;3.67;;;2.92;;